sensor_id;sensor_type;location;lat;lon;timestamp;P1;durP1;ratioP1;P2;durP2;ratioP2
12623;SDS011;6377;42.836;23.998;2023-07-13T00:02:08;4.95;;;4.30;;
12623;SDS011;6377;42.836;23.998;2023-07-13T00:04:36;4.78;;;4.18;;
12623;SDS011;6377;42.836;23.998;2023-07-13T00:07:04;6.45;;;4.80;;
12623;SDS011;6377;42.836;23.998;2023-07-13T00:09:32;4.63;;;4.13;;
12623;SDS011;6377;42.836;23.998;2023-07-13T00:11:59;4.75;;;4.07;;
12623;SDS011;6377;42.836;23.998;2023-07-13T00:14:29;5.90;;;4.55;;
12623;SDS011;6377;42.836;23.998;2023-07-13T00:16:56;4.47;;;4.05;;
12623;SDS011;6377;42.836;23.998;2023-07-13T00:19:25;5.60;;;4.38;;
12623;SDS011;6377;42.836;23.998;2023-07-13T00:21:53;4.57;;;4.18;;
12623;SDS011;6377;42.836;23.998;2023-07-13T00:24:21;5.07;;;4.00;;
12623;SDS011;6377;42.836;23.998;2023-07-13T00:26:49;5.55;;;4.40;;
12623;SDS011;6377;42.836;23.998;2023-07-13T00:29:17;6.32;;;4.43;;
12623;SDS011;6377;42.836;23.998;2023-07-13T00:31:48;6.63;;;4.32;;
12623;SDS011;6377;42.836;23.998;2023-07-13T00:34:15;5.88;;;4.15;;
12623;SDS011;6377;42.836;23.998;2023-07-13T00:36:43;4.90;;;4.35;;
12623;SDS011;6377;42.836;23.998;2023-07-13T00:39:10;5.63;;;4.20;;
12623;SDS011;6377;42.836;23.998;2023-07-13T00:41:38;4.90;;;4.10;;
12623;SDS011;6377;42.836;23.998;2023-07-13T00:44:08;5.45;;;4.40;;
12623;SDS011;6377;42.836;23.998;2023-07-13T00:46:39;4.85;;;4.10;;
12623;SDS011;6377;42.836;23.998;2023-07-13T00:49:08;5.95;;;4.18;;
12623;SDS011;6377;42.836;23.998;2023-07-13T00:51:43;4.95;;;4.07;;
12623;SDS011;6377;42.836;23.998;2023-07-13T00:54:17;5.68;;;4.10;;
12623;SDS011;6377;42.836;23.998;2023-07-13T00:56:48;5.82;;;3.90;;
12623;SDS011;6377;42.836;23.998;2023-07-13T00:59:18;4.05;;;3.65;;
12623;SDS011;6377;42.836;23.998;2023-07-13T01:01:48;6.95;;;4.25;;
12623;SDS011;6377;42.836;23.998;2023-07-13T01:04:17;4.32;;;3.92;;
12623;SDS011;6377;42.836;23.998;2023-07-13T01:06:45;5.22;;;4.18;;
12623;SDS011;6377;42.836;23.998;2023-07-13T01:09:13;4.43;;;4.03;;
12623;SDS011;6377;42.836;23.998;2023-07-13T01:11:41;4.40;;;4.00;;
12623;SDS011;6377;42.836;23.998;2023-07-13T01:14:10;4.80;;;4.30;;
12623;SDS011;6377;42.836;23.998;2023-07-13T01:16:37;7.03;;;5.10;;
12623;SDS011;6377;42.836;23.998;2023-07-13T01:19:10;6.10;;;4.72;;
12623;SDS011;6377;42.836;23.998;2023-07-13T01:21:49;9.00;;;5.28;;
12623;SDS011;6377;42.836;23.998;2023-07-13T01:24:29;7.20;;;4.63;;
12623;SDS011;6377;42.836;23.998;2023-07-13T01:26:57;5.88;;;4.40;;
12623;SDS011;6377;42.836;23.998;2023-07-13T01:29:24;7.07;;;4.50;;
12623;SDS011;6377;42.836;23.998;2023-07-13T01:31:51;5.35;;;4.32;;
12623;SDS011;6377;42.836;23.998;2023-07-13T01:34:22;5.22;;;4.03;;
12623;SDS011;6377;42.836;23.998;2023-07-13T01:36:51;5.25;;;4.45;;
12623;SDS011;6377;42.836;23.998;2023-07-13T01:39:25;4.43;;;4.03;;
12623;SDS011;6377;42.836;23.998;2023-07-13T01:41:55;6.18;;;4.53;;
12623;SDS011;6377;42.836;23.998;2023-07-13T01:44:23;6.15;;;4.28;;
12623;SDS011;6377;42.836;23.998;2023-07-13T01:46:51;6.38;;;4.15;;
12623;SDS011;6377;42.836;23.998;2023-07-13T01:49:18;4.47;;;3.90;;
12623;SDS011;6377;42.836;23.998;2023-07-13T01:51:46;4.82;;;4.10;;
12623;SDS011;6377;42.836;23.998;2023-07-13T01:54:15;5.95;;;4.10;;
12623;SDS011;6377;42.836;23.998;2023-07-13T01:56:48;6.38;;;4.10;;
12623;SDS011;6377;42.836;23.998;2023-07-13T01:59:16;5.25;;;4.55;;
12623;SDS011;6377;42.836;23.998;2023-07-13T02:01:49;4.88;;;4.13;;
12623;SDS011;6377;42.836;23.998;2023-07-13T02:04:19;4.55;;;3.83;;
12623;SDS011;6377;42.836;23.998;2023-07-13T02:06:47;5.35;;;4.28;;
12623;SDS011;6377;42.836;23.998;2023-07-13T02:09:16;4.75;;;4.22;;
12623;SDS011;6377;42.836;23.998;2023-07-13T02:11:43;5.22;;;4.22;;
12623;SDS011;6377;42.836;23.998;2023-07-13T02:14:11;4.47;;;3.97;;
12623;SDS011;6377;42.836;23.998;2023-07-13T02:16:39;5.05;;;4.55;;
12623;SDS011;6377;42.836;23.998;2023-07-13T02:19:06;5.35;;;4.65;;
12623;SDS011;6377;42.836;23.998;2023-07-13T02:21:34;5.38;;;4.20;;
12623;SDS011;6377;42.836;23.998;2023-07-13T02:24:02;7.80;;;4.97;;
12623;SDS011;6377;42.836;23.998;2023-07-13T02:26:31;8.15;;;4.82;;
12623;SDS011;6377;42.836;23.998;2023-07-13T02:28:58;5.07;;;4.40;;
12623;SDS011;6377;42.836;23.998;2023-07-13T02:31:26;6.53;;;4.63;;
12623;SDS011;6377;42.836;23.998;2023-07-13T02:33:53;5.63;;;4.38;;
12623;SDS011;6377;42.836;23.998;2023-07-13T02:36:21;5.78;;;4.30;;
12623;SDS011;6377;42.836;23.998;2023-07-13T02:38:49;6.95;;;4.00;;
12623;SDS011;6377;42.836;23.998;2023-07-13T02:41:17;5.65;;;4.57;;
12623;SDS011;6377;42.836;23.998;2023-07-13T02:43:46;4.63;;;3.92;;
12623;SDS011;6377;42.836;23.998;2023-07-13T02:46:13;5.15;;;4.38;;
12623;SDS011;6377;42.836;23.998;2023-07-13T02:48:41;5.47;;;4.43;;
12623;SDS011;6377;42.836;23.998;2023-07-13T02:51:09;5.82;;;4.60;;
12623;SDS011;6377;42.836;23.998;2023-07-13T02:53:36;5.72;;;4.00;;
12623;SDS011;6377;42.836;23.998;2023-07-13T02:56:04;4.70;;;4.30;;
12623;SDS011;6377;42.836;23.998;2023-07-13T02:58:32;5.53;;;3.85;;
12623;SDS011;6377;42.836;23.998;2023-07-13T03:01:05;7.82;;;4.80;;
12623;SDS011;6377;42.836;23.998;2023-07-13T03:03:34;7.57;;;4.35;;
12623;SDS011;6377;42.836;23.998;2023-07-13T03:06:02;5.50;;;4.43;;
12623;SDS011;6377;42.836;23.998;2023-07-13T03:08:32;4.95;;;4.45;;
12623;SDS011;6377;42.836;23.998;2023-07-13T03:11:00;6.18;;;4.75;;
12623;SDS011;6377;42.836;23.998;2023-07-13T03:13:28;6.90;;;4.30;;
12623;SDS011;6377;42.836;23.998;2023-07-13T03:15:55;5.60;;;4.10;;
12623;SDS011;6377;42.836;23.998;2023-07-13T03:18:25;4.82;;;4.28;;
12623;SDS011;6377;42.836;23.998;2023-07-13T03:20:53;5.13;;;4.63;;
12623;SDS011;6377;42.836;23.998;2023-07-13T03:23:21;5.03;;;4.40;;
12623;SDS011;6377;42.836;23.998;2023-07-13T03:25:50;5.38;;;4.40;;
12623;SDS011;6377;42.836;23.998;2023-07-13T03:28:27;6.28;;;4.82;;
12623;SDS011;6377;42.836;23.998;2023-07-13T03:30:59;5.05;;;4.50;;
12623;SDS011;6377;42.836;23.998;2023-07-13T03:33:28;6.20;;;4.10;;
12623;SDS011;6377;42.836;23.998;2023-07-13T03:35:56;4.60;;;4.13;;
12623;SDS011;6377;42.836;23.998;2023-07-13T03:38:24;4.93;;;4.28;;
12623;SDS011;6377;42.836;23.998;2023-07-13T03:40:51;5.95;;;4.70;;
12623;SDS011;6377;42.836;23.998;2023-07-13T03:43:22;6.60;;;4.40;;
12623;SDS011;6377;42.836;23.998;2023-07-13T03:45:49;7.53;;;4.40;;
12623;SDS011;6377;42.836;23.998;2023-07-13T03:48:20;5.00;;;3.97;;
12623;SDS011;6377;42.836;23.998;2023-07-13T03:50:49;6.72;;;5.00;;
12623;SDS011;6377;42.836;23.998;2023-07-13T03:53:16;5.68;;;4.43;;
12623;SDS011;6377;42.836;23.998;2023-07-13T03:55:44;6.13;;;5.00;;
12623;SDS011;6377;42.836;23.998;2023-07-13T03:58:26;5.75;;;5.15;;
12623;SDS011;6377;42.836;23.998;2023-07-13T04:00:54;5.82;;;5.25;;
12623;SDS011;6377;42.836;23.998;2023-07-13T04:03:22;7.30;;;4.70;;
12623;SDS011;6377;42.836;23.998;2023-07-13T04:05:51;11.00;;;5.22;;
12623;SDS011;6377;42.836;23.998;2023-07-13T04:08:19;5.20;;;4.57;;
12623;SDS011;6377;42.836;23.998;2023-07-13T04:10:46;5.75;;;4.85;;
12623;SDS011;6377;42.836;23.998;2023-07-13T04:13:13;5.32;;;4.45;;
12623;SDS011;6377;42.836;23.998;2023-07-13T04:15:41;5.32;;;4.72;;
12623;SDS011;6377;42.836;23.998;2023-07-13T04:18:09;6.90;;;4.55;;
12623;SDS011;6377;42.836;23.998;2023-07-13T04:20:36;6.28;;;4.38;;
12623;SDS011;6377;42.836;23.998;2023-07-13T04:23:05;7.70;;;5.40;;
12623;SDS011;6377;42.836;23.998;2023-07-13T04:25:32;8.15;;;5.20;;
12623;SDS011;6377;42.836;23.998;2023-07-13T04:28:00;6.72;;;4.55;;
12623;SDS011;6377;42.836;23.998;2023-07-13T04:30:27;5.95;;;4.25;;
12623;SDS011;6377;42.836;23.998;2023-07-13T04:32:55;9.10;;;4.72;;
12623;SDS011;6377;42.836;23.998;2023-07-13T04:35:22;5.57;;;4.30;;
12623;SDS011;6377;42.836;23.998;2023-07-13T04:37:50;6.03;;;4.50;;
12623;SDS011;6377;42.836;23.998;2023-07-13T04:40:19;7.80;;;5.03;;
12623;SDS011;6377;42.836;23.998;2023-07-13T04:42:47;5.88;;;4.07;;
12623;SDS011;6377;42.836;23.998;2023-07-13T04:45:14;6.95;;;5.30;;
12623;SDS011;6377;42.836;23.998;2023-07-13T04:47:42;7.00;;;5.30;;
12623;SDS011;6377;42.836;23.998;2023-07-13T04:50:12;9.27;;;5.03;;
12623;SDS011;6377;42.836;23.998;2023-07-13T04:52:46;9.82;;;4.97;;
12623;SDS011;6377;42.836;23.998;2023-07-13T04:55:14;7.40;;;5.00;;
12623;SDS011;6377;42.836;23.998;2023-07-13T04:57:43;6.20;;;5.57;;
12623;SDS011;6377;42.836;23.998;2023-07-13T05:00:12;7.03;;;5.25;;
12623;SDS011;6377;42.836;23.998;2023-07-13T05:02:42;7.70;;;5.22;;
12623;SDS011;6377;42.836;23.998;2023-07-13T05:05:10;6.60;;;5.00;;
12623;SDS011;6377;42.836;23.998;2023-07-13T05:07:38;9.05;;;5.63;;
12623;SDS011;6377;42.836;23.998;2023-07-13T05:10:06;9.38;;;5.50;;
12623;SDS011;6377;42.836;23.998;2023-07-13T05:12:34;9.18;;;5.35;;
12623;SDS011;6377;42.836;23.998;2023-07-13T05:15:03;7.40;;;5.63;;
12623;SDS011;6377;42.836;23.998;2023-07-13T05:17:31;9.27;;;5.90;;
12623;SDS011;6377;42.836;23.998;2023-07-13T05:19:59;9.70;;;6.07;;
12623;SDS011;6377;42.836;23.998;2023-07-13T05:22:26;11.10;;;6.40;;
12623;SDS011;6377;42.836;23.998;2023-07-13T05:24:53;7.45;;;6.43;;
12623;SDS011;6377;42.836;23.998;2023-07-13T05:27:21;6.47;;;5.20;;
12623;SDS011;6377;42.836;23.998;2023-07-13T05:29:48;6.57;;;5.72;;
12623;SDS011;6377;42.836;23.998;2023-07-13T05:32:18;10.82;;;7.13;;
12623;SDS011;6377;42.836;23.998;2023-07-13T05:34:46;10.70;;;6.28;;
12623;SDS011;6377;42.836;23.998;2023-07-13T05:37:13;9.25;;;6.00;;
12623;SDS011;6377;42.836;23.998;2023-07-13T05:39:40;9.80;;;5.90;;
12623;SDS011;6377;42.836;23.998;2023-07-13T05:42:08;6.90;;;6.07;;
12623;SDS011;6377;42.836;23.998;2023-07-13T05:44:35;9.07;;;6.45;;
12623;SDS011;6377;42.836;23.998;2023-07-13T05:47:03;8.73;;;6.10;;
12623;SDS011;6377;42.836;23.998;2023-07-13T05:49:32;8.13;;;6.35;;
12623;SDS011;6377;42.836;23.998;2023-07-13T05:52:00;12.98;;;6.50;;
12623;SDS011;6377;42.836;23.998;2023-07-13T05:54:27;8.60;;;6.88;;
12623;SDS011;6377;42.836;23.998;2023-07-13T05:56:55;9.98;;;6.53;;
12623;SDS011;6377;42.836;23.998;2023-07-13T05:59:22;12.00;;;6.95;;
12623;SDS011;6377;42.836;23.998;2023-07-13T06:01:50;13.38;;;6.28;;
12623;SDS011;6377;42.836;23.998;2023-07-13T06:04:18;9.45;;;6.43;;
12623;SDS011;6377;42.836;23.998;2023-07-13T06:06:47;7.53;;;5.90;;
12623;SDS011;6377;42.836;23.998;2023-07-13T06:09:15;11.57;;;6.35;;
12623;SDS011;6377;42.836;23.998;2023-07-13T06:11:42;9.93;;;6.32;;
12623;SDS011;6377;42.836;23.998;2023-07-13T06:14:10;12.40;;;6.97;;
12623;SDS011;6377;42.836;23.998;2023-07-13T06:16:37;14.93;;;8.05;;
12623;SDS011;6377;42.836;23.998;2023-07-13T06:19:06;12.38;;;7.32;;
12623;SDS011;6377;42.836;23.998;2023-07-13T06:21:33;13.18;;;7.07;;
12623;SDS011;6377;42.836;23.998;2023-07-13T06:24:02;11.68;;;7.40;;
12623;SDS011;6377;42.836;23.998;2023-07-13T06:26:30;7.93;;;6.55;;
12623;SDS011;6377;42.836;23.998;2023-07-13T06:28:58;11.45;;;6.10;;
12623;SDS011;6377;42.836;23.998;2023-07-13T06:31:25;10.25;;;5.97;;
12623;SDS011;6377;42.836;23.998;2023-07-13T06:33:53;12.57;;;6.25;;
12623;SDS011;6377;42.836;23.998;2023-07-13T06:36:20;9.73;;;6.07;;
12623;SDS011;6377;42.836;23.998;2023-07-13T06:38:48;10.85;;;5.90;;
12623;SDS011;6377;42.836;23.998;2023-07-13T06:41:17;7.88;;;5.70;;
12623;SDS011;6377;42.836;23.998;2023-07-13T06:43:44;8.05;;;5.57;;
12623;SDS011;6377;42.836;23.998;2023-07-13T06:46:12;8.85;;;5.47;;
12623;SDS011;6377;42.836;23.998;2023-07-13T06:48:39;7.18;;;5.50;;
12623;SDS011;6377;42.836;23.998;2023-07-13T06:51:13;11.75;;;5.60;;
12623;SDS011;6377;42.836;23.998;2023-07-13T06:53:40;7.30;;;5.28;;
12623;SDS011;6377;42.836;23.998;2023-07-13T06:56:09;11.38;;;5.60;;
12623;SDS011;6377;42.836;23.998;2023-07-13T06:58:38;7.80;;;5.70;;
12623;SDS011;6377;42.836;23.998;2023-07-13T07:01:05;9.90;;;5.93;;
12623;SDS011;6377;42.836;23.998;2023-07-13T07:03:33;7.88;;;5.50;;
12623;SDS011;6377;42.836;23.998;2023-07-13T07:06:01;7.60;;;5.50;;
12623;SDS011;6377;42.836;23.998;2023-07-13T07:08:29;12.88;;;7.30;;
12623;SDS011;6377;42.836;23.998;2023-07-13T07:10:56;8.23;;;6.07;;
12623;SDS011;6377;42.836;23.998;2023-07-13T07:13:23;12.02;;;6.65;;
12623;SDS011;6377;42.836;23.998;2023-07-13T07:16:07;8.23;;;6.07;;
12623;SDS011;6377;42.836;23.998;2023-07-13T07:18:38;10.65;;;6.28;;
12623;SDS011;6377;42.836;23.998;2023-07-13T07:21:11;9.15;;;5.93;;
12623;SDS011;6377;42.836;23.998;2023-07-13T07:23:42;8.60;;;5.85;;
12623;SDS011;6377;42.836;23.998;2023-07-13T07:26:19;9.82;;;5.97;;
12623;SDS011;6377;42.836;23.998;2023-07-13T07:28:52;6.30;;;5.47;;
12623;SDS011;6377;42.836;23.998;2023-07-13T07:31:21;10.18;;;5.47;;
12623;SDS011;6377;42.836;23.998;2023-07-13T07:33:49;7.70;;;5.20;;
12623;SDS011;6377;42.836;23.998;2023-07-13T07:36:23;8.18;;;5.40;;
12623;SDS011;6377;42.836;23.998;2023-07-13T07:38:50;10.55;;;5.50;;
12623;SDS011;6377;42.836;23.998;2023-07-13T07:41:23;8.30;;;5.32;;
12623;SDS011;6377;42.836;23.998;2023-07-13T07:43:54;6.65;;;4.88;;
12623;SDS011;6377;42.836;23.998;2023-07-13T07:46:23;7.45;;;5.13;;
12623;SDS011;6377;42.836;23.998;2023-07-13T07:48:53;6.85;;;5.43;;
12623;SDS011;6377;42.836;23.998;2023-07-13T07:51:28;6.88;;;5.22;;
12623;SDS011;6377;42.836;23.998;2023-07-13T07:56:31;7.45;;;6.07;;
12623;SDS011;6377;42.836;23.998;2023-07-13T07:59:11;8.15;;;5.75;;
12623;SDS011;6377;42.836;23.998;2023-07-13T08:01:40;5.80;;;5.10;;
12623;SDS011;6377;42.836;23.998;2023-07-13T08:04:08;6.28;;;5.22;;
12623;SDS011;6377;42.836;23.998;2023-07-13T08:06:48;6.55;;;4.97;;
12623;SDS011;6377;42.836;23.998;2023-07-13T08:09:16;7.20;;;5.05;;
12623;SDS011;6377;42.836;23.998;2023-07-13T08:11:43;7.07;;;5.03;;
12623;SDS011;6377;42.836;23.998;2023-07-13T08:14:11;6.28;;;5.00;;
12623;SDS011;6377;42.836;23.998;2023-07-13T08:16:42;8.70;;;4.72;;
12623;SDS011;6377;42.836;23.998;2023-07-13T08:19:10;6.90;;;4.70;;
12623;SDS011;6377;42.836;23.998;2023-07-13T08:21:37;5.90;;;4.63;;
12623;SDS011;6377;42.836;23.998;2023-07-13T08:24:05;10.80;;;5.30;;
12623;SDS011;6377;42.836;23.998;2023-07-13T08:26:32;8.38;;;5.63;;
12623;SDS011;6377;42.836;23.998;2023-07-13T08:29:09;6.97;;;4.97;;
12623;SDS011;6377;42.836;23.998;2023-07-13T08:31:44;8.05;;;5.00;;
12623;SDS011;6377;42.836;23.998;2023-07-13T08:34:11;7.20;;;5.18;;
12623;SDS011;6377;42.836;23.998;2023-07-13T08:36:40;6.65;;;5.20;;
12623;SDS011;6377;42.836;23.998;2023-07-13T08:39:07;5.65;;;4.65;;
12623;SDS011;6377;42.836;23.998;2023-07-13T08:41:35;6.90;;;5.32;;
12623;SDS011;6377;42.836;23.998;2023-07-13T08:44:07;27.85;;;5.65;;
12623;SDS011;6377;42.836;23.998;2023-07-13T08:46:54;6.97;;;5.43;;
12623;SDS011;6377;42.836;23.998;2023-07-13T08:49:40;6.70;;;5.07;;
12623;SDS011;6377;42.836;23.998;2023-07-13T08:52:10;6.15;;;5.38;;
12623;SDS011;6377;42.836;23.998;2023-07-13T08:54:55;9.48;;;4.95;;
12623;SDS011;6377;42.836;23.998;2023-07-13T08:57:30;7.63;;;5.15;;
12623;SDS011;6377;42.836;23.998;2023-07-13T09:03:12;7.57;;;4.88;;
12623;SDS011;6377;42.836;23.998;2023-07-13T09:05:49;5.32;;;4.82;;
12623;SDS011;6377;42.836;23.998;2023-07-13T09:08:33;7.93;;;4.93;;
12623;SDS011;6377;42.836;23.998;2023-07-13T09:11:22;9.57;;;4.90;;
12623;SDS011;6377;42.836;23.998;2023-07-13T09:14:06;8.60;;;4.50;;
12623;SDS011;6377;42.836;23.998;2023-07-13T09:19:26;7.15;;;4.80;;
12623;SDS011;6377;42.836;23.998;2023-07-13T09:24:36;8.70;;;5.20;;
12623;SDS011;6377;42.836;23.998;2023-07-13T09:27:13;10.20;;;5.05;;
12623;SDS011;6377;42.836;23.998;2023-07-13T09:29:45;6.25;;;4.90;;
12623;SDS011;6377;42.836;23.998;2023-07-13T09:34:55;6.05;;;4.85;;
12623;SDS011;6377;42.836;23.998;2023-07-13T09:37:23;7.85;;;5.10;;
12623;SDS011;6377;42.836;23.998;2023-07-13T09:39:58;9.55;;;4.75;;
12623;SDS011;6377;42.836;23.998;2023-07-13T09:42:30;6.10;;;4.60;;
12623;SDS011;6377;42.836;23.998;2023-07-13T09:45:00;7.05;;;4.75;;
12623;SDS011;6377;42.836;23.998;2023-07-13T09:47:38;7.13;;;5.40;;
12623;SDS011;6377;42.836;23.998;2023-07-13T09:55:28;6.80;;;5.28;;
12623;SDS011;6377;42.836;23.998;2023-07-13T10:03:14;7.95;;;5.40;;
12623;SDS011;6377;42.836;23.998;2023-07-13T10:05:46;5.70;;;5.20;;
12623;SDS011;6377;42.836;23.998;2023-07-13T10:08:17;10.88;;;5.40;;
12623;SDS011;6377;42.836;23.998;2023-07-13T10:10:50;8.52;;;5.43;;
12623;SDS011;6377;42.836;23.998;2023-07-13T10:42:24;6.57;;;5.40;;
12623;SDS011;6377;42.836;23.998;2023-07-13T10:44:55;7.95;;;5.55;;
12623;SDS011;6377;42.836;23.998;2023-07-13T10:47:23;7.28;;;5.10;;
12623;SDS011;6377;42.836;23.998;2023-07-13T10:49:52;8.13;;;5.10;;
12623;SDS011;6377;42.836;23.998;2023-07-13T10:52:44;8.60;;;5.30;;
12623;SDS011;6377;42.836;23.998;2023-07-13T10:55:33;6.78;;;5.28;;
12623;SDS011;6377;42.836;23.998;2023-07-13T10:58:11;6.07;;;5.28;;
12623;SDS011;6377;42.836;23.998;2023-07-13T11:00:47;6.05;;;5.10;;
12623;SDS011;6377;42.836;23.998;2023-07-13T11:03:17;13.90;;;5.78;;
12623;SDS011;6377;42.836;23.998;2023-07-13T11:05:51;10.73;;;5.45;;
12623;SDS011;6377;42.836;23.998;2023-07-13T11:08:51;5.97;;;5.18;;
12623;SDS011;6377;42.836;23.998;2023-07-13T11:11:36;5.90;;;5.30;;
12623;SDS011;6377;42.836;23.998;2023-07-13T11:14:14;8.52;;;5.43;;
12623;SDS011;6377;42.836;23.998;2023-07-13T11:20:09;7.75;;;4.90;;
12623;SDS011;6377;42.836;23.998;2023-07-13T11:22:52;9.98;;;4.78;;
12623;SDS011;6377;42.836;23.998;2023-07-13T11:25:35;7.60;;;5.07;;
12623;SDS011;6377;42.836;23.998;2023-07-13T11:28:05;9.50;;;4.63;;
12623;SDS011;6377;42.836;23.998;2023-07-13T11:30:49;7.35;;;4.72;;
12623;SDS011;6377;42.836;23.998;2023-07-13T11:33:31;7.75;;;4.80;;
12623;SDS011;6377;42.836;23.998;2023-07-13T11:36:20;10.95;;;4.78;;
12623;SDS011;6377;42.836;23.998;2023-07-13T11:39:02;7.78;;;4.88;;
12623;SDS011;6377;42.836;23.998;2023-07-13T11:41:35;8.85;;;4.50;;
12623;SDS011;6377;42.836;23.998;2023-07-13T11:44:11;9.35;;;4.60;;
12623;SDS011;6377;42.836;23.998;2023-07-13T11:46:46;6.07;;;4.25;;
12623;SDS011;6377;42.836;23.998;2023-07-13T11:49:17;6.75;;;5.10;;
12623;SDS011;6377;42.836;23.998;2023-07-13T11:51:45;5.40;;;4.13;;
12623;SDS011;6377;42.836;23.998;2023-07-13T11:54:26;8.93;;;4.45;;
12623;SDS011;6377;42.836;23.998;2023-07-13T11:59:30;6.82;;;4.53;;
12623;SDS011;6377;42.836;23.998;2023-07-13T12:02:00;5.50;;;4.93;;
12623;SDS011;6377;42.836;23.998;2023-07-13T12:04:30;5.60;;;4.45;;
12623;SDS011;6377;42.836;23.998;2023-07-13T12:07:03;6.80;;;4.00;;
12623;SDS011;6377;42.836;23.998;2023-07-13T12:09:34;6.30;;;4.38;;
12623;SDS011;6377;42.836;23.998;2023-07-13T12:12:03;9.20;;;5.15;;
12623;SDS011;6377;42.836;23.998;2023-07-13T12:14:37;7.13;;;4.50;;
12623;SDS011;6377;42.836;23.998;2023-07-13T12:17:09;8.13;;;4.68;;
12623;SDS011;6377;42.836;23.998;2023-07-13T12:19:40;6.60;;;4.60;;
12623;SDS011;6377;42.836;23.998;2023-07-13T12:22:08;5.50;;;4.55;;
12623;SDS011;6377;42.836;23.998;2023-07-13T12:24:40;7.10;;;5.18;;
12623;SDS011;6377;42.836;23.998;2023-07-13T12:27:15;8.10;;;4.93;;
12623;SDS011;6377;42.836;23.998;2023-07-13T12:29:51;6.63;;;5.00;;
12623;SDS011;6377;42.836;23.998;2023-07-13T12:32:21;6.43;;;4.90;;
12623;SDS011;6377;42.836;23.998;2023-07-13T12:34:51;11.70;;;5.70;;
12623;SDS011;6377;42.836;23.998;2023-07-13T12:37:21;9.32;;;5.00;;
12623;SDS011;6377;42.836;23.998;2023-07-13T12:39:52;8.80;;;5.53;;
12623;SDS011;6377;42.836;23.998;2023-07-13T12:42:21;6.63;;;5.20;;
12623;SDS011;6377;42.836;23.998;2023-07-13T12:44:53;8.18;;;5.50;;
12623;SDS011;6377;42.836;23.998;2023-07-13T12:47:24;7.15;;;5.80;;
12623;SDS011;6377;42.836;23.998;2023-07-13T12:49:53;12.25;;;5.18;;
12623;SDS011;6377;42.836;23.998;2023-07-13T12:52:23;7.38;;;5.15;;
12623;SDS011;6377;42.836;23.998;2023-07-13T12:55:03;7.78;;;5.15;;
12623;SDS011;6377;42.836;23.998;2023-07-13T12:57:40;9.07;;;4.97;;
12623;SDS011;6377;42.836;23.998;2023-07-13T13:03:04;6.18;;;4.65;;
12623;SDS011;6377;42.836;23.998;2023-07-13T13:05:46;7.15;;;4.95;;
12623;SDS011;6377;42.836;23.998;2023-07-13T13:08:15;6.80;;;4.82;;
12623;SDS011;6377;42.836;23.998;2023-07-13T13:10:42;9.68;;;5.18;;
12623;SDS011;6377;42.836;23.998;2023-07-13T13:13:11;7.40;;;4.32;;
12623;SDS011;6377;42.836;23.998;2023-07-13T13:15:39;9.90;;;4.60;;
12623;SDS011;6377;42.836;23.998;2023-07-13T13:18:11;7.57;;;5.28;;
12623;SDS011;6377;42.836;23.998;2023-07-13T13:20:43;8.15;;;4.72;;
12623;SDS011;6377;42.836;23.998;2023-07-13T13:23:12;8.02;;;5.07;;
12623;SDS011;6377;42.836;23.998;2023-07-13T13:25:42;5.32;;;4.60;;
12623;SDS011;6377;42.836;23.998;2023-07-13T13:28:14;6.95;;;5.15;;
12623;SDS011;6377;42.836;23.998;2023-07-13T13:30:43;8.07;;;4.82;;
12623;SDS011;6377;42.836;23.998;2023-07-13T13:33:13;8.88;;;5.45;;
12623;SDS011;6377;42.836;23.998;2023-07-13T13:35:42;6.25;;;4.95;;
12623;SDS011;6377;42.836;23.998;2023-07-13T13:38:11;8.70;;;5.43;;
12623;SDS011;6377;42.836;23.998;2023-07-13T13:40:40;7.63;;;4.90;;
12623;SDS011;6377;42.836;23.998;2023-07-13T13:43:13;7.22;;;5.13;;
12623;SDS011;6377;42.836;23.998;2023-07-13T13:45:43;6.63;;;5.28;;
12623;SDS011;6377;42.836;23.998;2023-07-13T13:48:17;8.88;;;5.32;;
12623;SDS011;6377;42.836;23.998;2023-07-13T13:50:47;7.18;;;4.82;;
12623;SDS011;6377;42.836;23.998;2023-07-13T13:53:15;7.30;;;5.70;;
12623;SDS011;6377;42.836;23.998;2023-07-13T13:55:43;8.57;;;5.05;;
12623;SDS011;6377;42.836;23.998;2023-07-13T13:58:11;10.93;;;4.93;;
12623;SDS011;6377;42.836;23.998;2023-07-13T14:00:39;10.90;;;5.20;;
12623;SDS011;6377;42.836;23.998;2023-07-13T14:03:13;9.68;;;5.07;;
12623;SDS011;6377;42.836;23.998;2023-07-13T14:05:43;7.53;;;5.65;;
12623;SDS011;6377;42.836;23.998;2023-07-13T14:08:12;9.30;;;5.00;;
12623;SDS011;6377;42.836;23.998;2023-07-13T14:10:42;8.23;;;5.30;;
12623;SDS011;6377;42.836;23.998;2023-07-13T14:13:14;10.25;;;5.18;;
12623;SDS011;6377;42.836;23.998;2023-07-13T14:15:45;10.80;;;6.30;;
12623;SDS011;6377;42.836;23.998;2023-07-13T14:18:13;10.15;;;6.25;;
12623;SDS011;6377;42.836;23.998;2023-07-13T14:20:44;9.55;;;5.57;;
12623;SDS011;6377;42.836;23.998;2023-07-13T14:23:12;9.10;;;5.38;;
12623;SDS011;6377;42.836;23.998;2023-07-13T14:25:40;8.15;;;5.47;;
12623;SDS011;6377;42.836;23.998;2023-07-13T14:28:14;7.90;;;5.47;;
12623;SDS011;6377;42.836;23.998;2023-07-13T14:30:47;9.40;;;5.20;;
12623;SDS011;6377;42.836;23.998;2023-07-13T14:33:14;8.32;;;5.45;;
12623;SDS011;6377;42.836;23.998;2023-07-13T14:35:42;7.90;;;5.40;;
12623;SDS011;6377;42.836;23.998;2023-07-13T14:38:13;10.93;;;5.35;;
12623;SDS011;6377;42.836;23.998;2023-07-13T14:40:43;8.32;;;5.35;;
12623;SDS011;6377;42.836;23.998;2023-07-13T14:43:11;7.65;;;5.15;;
12623;SDS011;6377;42.836;23.998;2023-07-13T14:45:40;12.57;;;5.43;;
12623;SDS011;6377;42.836;23.998;2023-07-13T14:48:14;9.85;;;5.50;;
12623;SDS011;6377;42.836;23.998;2023-07-13T14:50:44;7.82;;;5.20;;
12623;SDS011;6377;42.836;23.998;2023-07-13T14:53:13;10.43;;;5.80;;
12623;SDS011;6377;42.836;23.998;2023-07-13T14:55:41;10.65;;;5.35;;
12623;SDS011;6377;42.836;23.998;2023-07-13T14:58:09;11.93;;;5.82;;
12623;SDS011;6377;42.836;23.998;2023-07-13T15:00:36;9.90;;;5.72;;
12623;SDS011;6377;42.836;23.998;2023-07-13T15:03:04;9.40;;;5.50;;
12623;SDS011;6377;42.836;23.998;2023-07-13T15:05:32;7.57;;;4.75;;
12623;SDS011;6377;42.836;23.998;2023-07-13T15:08:01;9.90;;;5.30;;
12623;SDS011;6377;42.836;23.998;2023-07-13T15:10:32;7.43;;;5.28;;
12623;SDS011;6377;42.836;23.998;2023-07-13T15:13:01;9.40;;;5.25;;
12623;SDS011;6377;42.836;23.998;2023-07-13T15:15:41;8.63;;;5.40;;
12623;SDS011;6377;42.836;23.998;2023-07-13T15:18:12;6.95;;;4.90;;
12623;SDS011;6377;42.836;23.998;2023-07-13T15:20:42;8.48;;;5.05;;
12623;SDS011;6377;42.836;23.998;2023-07-13T15:23:13;10.18;;;5.70;;
12623;SDS011;6377;42.836;23.998;2023-07-13T15:25:43;9.48;;;5.10;;
12623;SDS011;6377;42.836;23.998;2023-07-13T15:28:11;10.18;;;5.45;;
12623;SDS011;6377;42.836;23.998;2023-07-13T15:30:40;10.35;;;5.57;;
12623;SDS011;6377;42.836;23.998;2023-07-13T15:33:11;10.00;;;5.25;;
12623;SDS011;6377;42.836;23.998;2023-07-13T15:35:42;12.75;;;5.35;;
12623;SDS011;6377;42.836;23.998;2023-07-13T15:38:15;11.27;;;5.65;;
12623;SDS011;6377;42.836;23.998;2023-07-13T15:40:45;12.82;;;5.45;;
12623;SDS011;6377;42.836;23.998;2023-07-13T15:43:14;9.57;;;5.40;;
12623;SDS011;6377;42.836;23.998;2023-07-13T15:45:42;9.13;;;5.68;;
12623;SDS011;6377;42.836;23.998;2023-07-13T15:48:15;8.93;;;5.82;;
12623;SDS011;6377;42.836;23.998;2023-07-13T15:50:44;10.30;;;6.20;;
12623;SDS011;6377;42.836;23.998;2023-07-13T15:53:14;9.93;;;6.05;;
12623;SDS011;6377;42.836;23.998;2023-07-13T15:55:46;8.27;;;5.90;;
12623;SDS011;6377;42.836;23.998;2023-07-13T15:58:14;9.98;;;6.03;;
12623;SDS011;6377;42.836;23.998;2023-07-13T16:00:42;12.30;;;6.10;;
12623;SDS011;6377;42.836;23.998;2023-07-13T16:03:10;8.30;;;6.70;;
12623;SDS011;6377;42.836;23.998;2023-07-13T16:05:37;9.70;;;5.57;;
12623;SDS011;6377;42.836;23.998;2023-07-13T16:08:05;10.07;;;6.07;;